createdAt,value
2019-02-08T00:00:29.329Z,24.32
2019-02-08T00:01:32.988Z,23.70
2019-02-08T00:02:36.677Z,22.70
2019-02-08T00:03:40.323Z,22.80
2019-02-08T00:04:43.966Z,21.52
2019-02-08T00:05:47.924Z,22.73
2019-02-08T00:06:52.009Z,23.22
2019-02-08T00:07:55.801Z,22.13
2019-02-08T00:08:59.440Z,22.90
2019-02-08T00:10:03.390Z,22.93
2019-02-08T00:11:07.083Z,23.77
2019-02-08T00:12:10.720Z,24.07
2019-02-08T00:13:14.362Z,23.75
2019-02-08T00:14:18.013Z,22.80
2019-02-08T00:15:22.850Z,24.07
2019-02-08T00:16:26.777Z,24.25
2019-02-08T00:17:30.427Z,23.83
2019-02-08T00:18:34.061Z,23.80
2019-02-08T00:19:38.178Z,22.02
2019-02-08T00:20:41.816Z,21.00
2019-02-08T00:21:45.501Z,21.10
2019-02-08T00:22:49.456Z,21.55
2019-02-08T00:23:53.091Z,20.37
2019-02-08T00:24:56.682Z,20.55
2019-02-08T00:26:00.325Z,21.17
2019-02-08T00:27:04.834Z,20.12
2019-02-08T00:28:08.580Z,23.30
2019-02-08T00:29:12.221Z,21.77
2019-02-08T00:30:21.398Z,22.60
2019-02-08T00:31:25.251Z,21.60
2019-02-08T00:32:28.985Z,20.52
2019-02-08T00:33:32.614Z,21.55
2019-02-08T00:34:36.952Z,22.07
2019-02-08T00:35:40.603Z,22.55
2019-02-08T00:36:44.253Z,21.95
2019-02-08T00:37:47.928Z,22.85
2019-02-08T00:38:51.497Z,22.13
2019-02-08T00:39:55.145Z,23.15
2019-02-08T00:40:58.788Z,22.67
2019-02-08T00:42:02.439Z,23.02
2019-02-08T00:43:06.520Z,22.77
2019-02-08T00:44:10.185Z,24.07
2019-02-08T00:45:16.430Z,22.27
2019-02-08T00:46:20.015Z,21.42
2019-02-08T00:47:23.667Z,22.37
2019-02-08T00:48:27.806Z,22.13
2019-02-08T00:49:31.521Z,23.35
2019-02-08T00:50:35.159Z,21.77
2019-02-08T00:51:38.806Z,21.40
2019-02-08T00:52:42.557Z,22.22
2019-02-08T00:53:46.242Z,22.42
2019-02-08T00:54:49.891Z,22.02
2019-02-08T00:55:53.602Z,21.62
2019-02-08T00:56:57.253Z,22.45
2019-02-08T00:58:00.890Z,21.77
2019-02-08T00:59:04.863Z,22.10
2019-02-08T01:00:16.150Z,21.87
2019-02-08T01:01:19.795Z,21.90
2019-02-08T01:02:23.545Z,20.52
2019-02-08T01:03:27.675Z,17.95
2019-02-08T01:04:31.356Z,18.17
2019-02-08T01:05:34.991Z,19.57
2019-02-08T01:06:38.672Z,21.75
2019-02-08T01:07:42.812Z,22.90
2019-02-08T01:08:46.450Z,22.73
2019-02-08T01:09:50.243Z,22.15
2019-02-08T01:10:53.888Z,24.25
2019-02-08T01:11:57.556Z,24.50
2019-02-08T01:13:01.981Z,23.60
2019-02-08T01:14:05.636Z,25.82
2019-02-08T01:15:12.063Z,24.98
2019-02-08T01:16:15.790Z,25.27
2019-02-08T01:17:19.883Z,25.32
2019-02-08T01:18:23.531Z,27.00
2019-02-08T01:19:27.277Z,26.85
2019-02-08T01:20:31.048Z,25.92
2019-02-08T01:21:34.688Z,26.15
2019-02-08T01:22:38.334Z,27.48
2019-02-08T01:23:41.986Z,25.10
2019-02-08T01:24:45.995Z,24.75
2019-02-08T01:25:49.676Z,23.42
2019-02-08T01:26:53.310Z,23.55
2019-02-08T01:27:56.959Z,22.50
2019-02-08T01:29:00.588Z,21.37
2019-02-08T01:30:05.883Z,21.70
2019-02-08T01:31:09.551Z,20.48
2019-02-08T01:32:13.273Z,20.52
2019-02-08T01:33:17.024Z,20.00
2019-02-08T01:34:20.971Z,20.92
2019-02-08T01:35:24.916Z,21.80
2019-02-08T01:36:28.702Z,20.77
2019-02-08T01:37:32.342Z,21.73
2019-02-08T01:38:36.000Z,21.20
2019-02-08T01:39:39.709Z,21.27
2019-02-08T01:40:43.414Z,20.60
2019-02-08T01:41:47.098Z,20.17
2019-02-08T01:42:51.168Z,20.15
2019-02-08T01:43:55.233Z,19.77
2019-02-08T01:44:58.940Z,20.27
2019-02-08T01:46:02.658Z,20.92
2019-02-08T01:47:06.333Z,20.43
2019-02-08T01:48:09.978Z,21.55
2019-02-08T01:49:13.618Z,18.95
2019-02-08T01:50:23.172Z,20.08
2019-02-08T01:51:26.815Z,19.90
2019-02-08T01:52:30.483Z,19.23
2019-02-08T01:53:34.133Z,19.48
2019-02-08T01:54:37.827Z,19.92
2019-02-08T01:55:41.800Z,19.55
2019-02-08T01:56:45.440Z,19.62
2019-02-08T01:57:49.981Z,19.25
2019-02-08T01:58:53.626Z,21.02
2019-02-08T01:59:57.260Z,19.42
2019-02-08T02:01:00.983Z,20.60
2019-02-08T02:02:04.799Z,20.15
2019-02-08T02:03:09.850Z,20.08
2019-02-08T02:04:13.564Z,22.02
2019-02-08T02:05:17.596Z,21.07
2019-02-08T02:06:21.335Z,20.72
2019-02-08T02:07:25.151Z,20.55
2019-02-08T02:08:28.898Z,19.98
2019-02-08T02:09:32.655Z,19.65
2019-02-08T02:10:41.497Z,21.12
2019-02-08T02:11:45.134Z,20.80
2019-02-08T02:12:48.778Z,19.98
2019-02-08T02:13:52.462Z,21.12
2019-02-08T02:14:56.105Z,20.97
2019-02-08T02:15:59.765Z,22.07
2019-02-08T02:17:03.400Z,20.92
2019-02-08T02:18:08.043Z,20.37
2019-02-08T02:19:11.716Z,22.10
2019-02-08T02:20:18.428Z,20.55
2019-02-08T02:21:22.145Z,22.77
2019-02-08T02:22:25.864Z,21.75
2019-02-08T02:23:29.508Z,21.65
2019-02-08T02:24:33.179Z,19.67
2019-02-08T02:25:36.998Z,20.55
2019-02-08T02:26:40.808Z,21.15
2019-02-08T02:27:44.728Z,21.80
2019-02-08T02:28:48.395Z,21.65
2019-02-08T02:29:52.062Z,21.93
2019-02-08T02:30:55.783Z,22.93
2019-02-08T02:31:59.862Z,22.25
2019-02-08T02:33:04.402Z,23.02
2019-02-08T02:34:08.169Z,23.10
2019-02-08T02:35:14.123Z,23.83
2019-02-08T02:36:17.782Z,23.92
2019-02-08T02:37:21.410Z,23.77
2019-02-08T02:38:25.060Z,23.62
2019-02-08T02:39:29.717Z,21.90
2019-02-08T02:40:33.498Z,22.65
2019-02-08T02:41:37.145Z,22.87
2019-02-08T02:42:40.887Z,23.35
2019-02-08T02:43:44.603Z,23.22
2019-02-08T02:44:48.318Z,23.42
2019-02-08T02:45:52.061Z,23.73
2019-02-08T02:46:55.706Z,23.67
2019-02-08T02:47:59.651Z,24.57
2019-02-08T02:49:03.307Z,24.32
2019-02-08T02:50:09.152Z,25.23
2019-02-08T02:51:12.827Z,24.20
2019-02-08T02:52:16.564Z,26.52
2019-02-08T02:53:20.385Z,25.77
2019-02-08T02:54:24.056Z,26.82
2019-02-08T02:55:29.592Z,26.42
2019-02-08T02:56:33.281Z,27.40
2019-02-08T02:57:36.923Z,26.93
2019-02-08T02:58:40.633Z,27.00
2019-02-08T02:59:44.344Z,27.07
2019-02-08T03:00:48.289Z,27.17
2019-02-08T03:01:52.056Z,26.37
2019-02-08T03:02:55.778Z,26.25
2019-02-08T03:03:59.511Z,24.50
2019-02-08T03:05:03.124Z,25.75
2019-02-08T03:06:06.944Z,24.77
2019-02-08T03:07:10.637Z,26.80
2019-02-08T03:08:15.793Z,25.25
2019-02-08T03:09:19.501Z,26.37
2019-02-08T03:10:24.115Z,26.23
2019-02-08T03:11:27.755Z,26.50
2019-02-08T03:12:31.427Z,27.42
2019-02-08T03:13:35.506Z,24.27
2019-02-08T03:14:39.149Z,25.40
2019-02-08T03:15:42.822Z,26.17
2019-02-08T03:16:46.436Z,25.02
2019-02-08T03:17:50.625Z,26.33
2019-02-08T03:18:54.316Z,23.85
2019-02-08T03:19:57.955Z,24.30
2019-02-08T03:21:01.621Z,22.90
2019-02-08T03:22:05.318Z,23.07
2019-02-08T03:23:09.067Z,24.30
2019-02-08T03:24:13.235Z,23.05
2019-02-08T03:25:19.869Z,23.22
2019-02-08T03:26:23.618Z,22.50
2019-02-08T03:27:27.351Z,22.55
2019-02-08T03:28:31.091Z,21.45
2019-02-08T03:29:34.726Z,21.40
2019-02-08T03:30:42.739Z,22.02
2019-02-08T03:31:46.445Z,22.22
2019-02-08T03:32:50.290Z,23.32
2019-02-08T03:33:53.971Z,24.50
2019-02-08T03:34:57.607Z,23.30
2019-02-08T03:36:01.250Z,24.15
2019-02-08T03:37:04.898Z,22.65
2019-02-08T03:38:08.539Z,23.20
2019-02-08T03:39:12.784Z,22.32
2019-02-08T03:40:19.186Z,21.95
2019-02-08T03:41:22.829Z,22.05
2019-02-08T03:42:26.486Z,23.80
2019-02-08T03:43:30.197Z,22.40
2019-02-08T03:44:33.878Z,21.90
2019-02-08T03:45:42.715Z,21.87
2019-02-08T03:46:46.317Z,20.75
2019-02-08T03:47:50.159Z,22.05
2019-02-08T03:48:53.805Z,20.40
2019-02-08T03:49:57.481Z,21.73
2019-02-08T03:51:01.131Z,19.90
2019-02-08T03:52:04.766Z,19.32
2019-02-08T03:53:09.114Z,19.50
2019-02-08T03:54:20.720Z,18.73
2019-02-08T03:55:20.361Z,19.62
2019-02-08T03:56:24.026Z,18.00
2019-02-08T03:57:27.672Z,19.60
2019-02-08T03:58:31.320Z,18.75
2019-02-08T03:59:35.464Z,18.23
2019-02-08T04:00:50.305Z,16.57
2019-02-08T04:01:53.958Z,18.35
2019-02-08T04:02:57.596Z,17.80
2019-02-08T04:04:16.494Z,17.77
2019-02-08T04:05:20.247Z,17.65
2019-02-08T04:06:23.902Z,18.23
2019-02-08T04:07:27.528Z,18.20
2019-02-08T04:08:31.171Z,18.05
2019-02-08T04:09:35.131Z,17.75
2019-02-08T04:10:38.767Z,18.65
2019-02-08T04:11:42.446Z,18.60
2019-02-08T04:12:46.193Z,17.92
2019-02-08T04:13:49.836Z,19.75
2019-02-08T04:14:53.478Z,19.90
2019-02-08T04:15:57.119Z,20.00
2019-02-08T04:17:00.873Z,19.10
2019-02-08T04:18:05.017Z,20.23
2019-02-08T04:19:09.670Z,21.17
2019-02-08T04:20:16.209Z,20.55
2019-02-08T04:21:19.854Z,20.40
2019-02-08T04:22:23.516Z,23.02
2019-02-08T04:23:27.155Z,22.37
2019-02-08T04:24:30.796Z,24.98
2019-02-08T04:25:34.432Z,24.80
2019-02-08T04:26:38.188Z,43.20
2019-02-08T04:27:41.841Z,67.67
2019-02-08T04:28:45.485Z,44.77
2019-02-08T04:29:49.233Z,46.58
2019-02-08T04:30:52.887Z,51.95
2019-02-08T04:31:56.518Z,34.23
2019-02-08T04:33:01.811Z,30.48
2019-02-08T04:34:05.516Z,26.52
2019-02-08T04:35:09.670Z,25.92
2019-02-08T04:36:13.381Z,25.25
2019-02-08T04:37:17.020Z,23.55
2019-02-08T04:38:20.770Z,24.10
2019-02-08T04:39:24.420Z,24.67
2019-02-08T04:40:28.559Z,25.92
2019-02-08T04:41:32.587Z,25.57
2019-02-08T04:42:37.668Z,24.95
2019-02-08T04:43:41.565Z,23.92
2019-02-08T04:44:45.281Z,24.02
2019-02-08T04:45:48.925Z,24.00
2019-02-08T04:46:52.606Z,23.20
2019-02-08T04:47:56.421Z,25.12
2019-02-08T04:49:00.127Z,30.17
2019-02-08T04:50:05.035Z,40.03
2019-02-08T04:51:09.088Z,36.70
2019-02-08T04:52:12.971Z,37.45
2019-02-08T04:53:16.675Z,36.65
2019-02-08T04:54:20.324Z,36.58
2019-02-08T04:55:24.308Z,37.28
2019-02-08T04:56:28.052Z,33.53
2019-02-08T04:57:31.725Z,33.25
2019-02-08T04:58:35.963Z,35.55
2019-02-08T04:59:39.755Z,33.53
2019-02-08T05:00:43.473Z,34.33
2019-02-08T05:01:47.230Z,36.25
2019-02-08T05:02:50.989Z,35.90
2019-02-08T05:03:54.664Z,36.03
2019-02-08T05:04:58.378Z,37.05
2019-02-08T05:06:02.105Z,36.20
2019-02-08T05:07:05.801Z,34.83
2019-02-08T05:08:09.455Z,36.95
2019-02-08T05:09:13.520Z,35.03
2019-02-08T05:10:22.933Z,38.80
2019-02-08T05:11:26.557Z,40.78
2019-02-08T05:12:30.135Z,41.65
2019-02-08T05:13:33.852Z,46.15
2019-02-08T05:14:39.012Z,49.08
2019-02-08T05:15:42.682Z,53.73
2019-02-08T05:16:46.766Z,51.92
2019-02-08T05:17:50.518Z,56.75
2019-02-08T05:18:55.130Z,53.52
2019-02-08T05:19:58.796Z,53.38
2019-02-08T05:21:02.438Z,55.65
2019-02-08T05:22:06.436Z,56.23
2019-02-08T05:23:10.434Z,57.43
2019-02-08T05:24:14.081Z,63.08
2019-02-08T05:25:18.376Z,63.02
2019-02-08T05:26:22.025Z,64.25
2019-02-08T05:27:25.660Z,63.90
2019-02-08T05:28:29.305Z,62.70
2019-02-08T05:29:33.144Z,57.45
2019-02-08T05:30:37.017Z,56.75
2019-02-08T05:31:40.587Z,54.60
2019-02-08T05:32:44.248Z,52.33
2019-02-08T05:33:47.882Z,47.45
2019-02-08T05:34:51.526Z,47.40
2019-02-08T05:35:55.185Z,47.25
2019-02-08T05:36:58.829Z,46.48
2019-02-08T05:38:02.524Z,47.65
2019-02-08T05:39:09.515Z,47.30
2019-02-08T05:40:15.464Z,37.90
2019-02-08T05:41:19.136Z,34.30
2019-02-08T05:42:22.826Z,29.70
2019-02-08T05:43:26.466Z,28.95
2019-02-08T05:44:30.608Z,27.95
2019-02-08T05:45:34.306Z,30.35
2019-02-08T05:46:37.988Z,30.85
2019-02-08T05:47:41.641Z,34.92
2019-02-08T05:48:45.284Z,37.45
2019-02-08T05:49:48.929Z,39.65
2019-02-08T05:50:52.685Z,40.00
2019-02-08T05:51:56.339Z,40.83
2019-02-08T05:52:59.987Z,38.35
2019-02-08T05:54:03.725Z,39.50
2019-02-08T05:55:10.409Z,40.50
2019-02-08T05:56:14.129Z,42.73
2019-02-08T05:57:17.808Z,41.55
2019-02-08T05:58:23.097Z,40.98
2019-02-08T05:59:26.742Z,43.28
2019-02-08T06:00:40.702Z,40.88
2019-02-08T06:01:46.618Z,40.55
2019-02-08T06:02:50.313Z,39.63
2019-02-08T06:03:54.005Z,38.20
2019-02-08T06:04:57.641Z,39.05
2019-02-08T06:06:01.376Z,37.42
2019-02-08T06:07:05.127Z,38.55
2019-02-08T06:08:09.498Z,38.00
2019-02-08T06:09:13.144Z,38.38
2019-02-08T06:10:17.391Z,37.93
2019-02-08T06:11:21.569Z,38.73
2019-02-08T06:12:25.208Z,39.30
2019-02-08T06:13:28.970Z,37.80
2019-02-08T06:14:33.107Z,37.95
2019-02-08T06:15:37.317Z,36.73
2019-02-08T06:16:41.029Z,35.08
2019-02-08T06:17:44.673Z,33.40
2019-02-08T06:18:48.336Z,30.68
2019-02-08T06:19:51.985Z,33.42
2019-02-08T06:20:55.624Z,33.23
2019-02-08T06:21:59.263Z,32.00
2019-02-08T06:23:03.112Z,32.15
2019-02-08T06:24:06.900Z,30.75
2019-02-08T06:25:12.851Z,27.87
2019-02-08T06:26:16.497Z,30.32
2019-02-08T06:27:20.142Z,30.57
2019-02-08T06:28:23.784Z,29.05
2019-02-08T06:29:27.533Z,33.65
2019-02-08T06:30:31.684Z,30.62
2019-02-08T06:31:35.312Z,33.28
2019-02-08T06:32:38.961Z,31.95
2019-02-08T06:33:42.596Z,31.68
2019-02-08T06:34:46.284Z,33.55
2019-02-08T06:35:49.978Z,27.35
2019-02-08T06:36:54.036Z,26.15
2019-02-08T06:37:57.676Z,25.02
2019-02-08T06:39:01.398Z,22.67
2019-02-08T06:40:10.981Z,21.75
2019-02-08T06:41:14.695Z,21.45
2019-02-08T06:42:18.400Z,22.50
2019-02-08T06:43:22.109Z,21.97
2019-02-08T06:44:25.744Z,21.17
2019-02-08T06:45:29.607Z,22.22
2019-02-08T06:46:33.320Z,23.05
2019-02-08T06:47:37.032Z,23.00
2019-02-08T06:48:40.747Z,22.35
2019-02-08T06:49:44.851Z,22.35
2019-02-08T06:50:48.527Z,23.92
2019-02-08T06:51:52.240Z,21.50
2019-02-08T06:52:55.955Z,23.27
2019-02-08T06:53:59.599Z,22.40
2019-02-08T06:55:10.424Z,24.18
2019-02-08T06:56:11.738Z,24.90
2019-02-08T06:57:17.003Z,24.07
2019-02-08T06:58:28.206Z,24.00
2019-02-08T06:59:33.488Z,22.27
2019-02-08T07:00:47.684Z,22.98
2019-02-08T07:02:08.261Z,22.70
2019-02-08T07:03:19.314Z,25.20
2019-02-08T07:04:33.219Z,23.12
2019-02-08T07:05:50.551Z,21.82
2019-02-08T07:06:55.863Z,21.00
2019-02-08T07:08:07.022Z,21.35
2019-02-08T07:09:23.336Z,22.62
2019-02-08T07:10:32.981Z,22.00
2019-02-08T07:11:54.389Z,22.65
2019-02-08T07:13:02.755Z,21.90
2019-02-08T07:14:11.380Z,21.90
2019-02-08T07:15:16.744Z,21.10
2019-02-08T07:16:22.040Z,23.12
2019-02-08T07:17:36.396Z,22.07
2019-02-08T07:18:44.767Z,20.27
2019-02-08T07:19:53.018Z,20.60
2019-02-08T07:21:10.188Z,20.43
2019-02-08T07:22:18.224Z,22.13
2019-02-08T07:23:32.509Z,20.55
2019-02-08T07:24:44.121Z,20.90
2019-02-08T07:25:49.395Z,20.08
2019-02-08T07:27:03.717Z,18.80
2019-02-08T07:28:09.047Z,19.23
2019-02-08T07:29:14.337Z,19.35
2019-02-08T07:30:31.221Z,20.97
2019-02-08T07:31:36.901Z,17.67
2019-02-08T07:32:42.229Z,20.25
2019-02-08T07:33:50.524Z,19.80
2019-02-08T07:34:58.893Z,16.95
2019-02-08T07:36:20.959Z,16.75
2019-02-08T07:37:26.575Z,15.48
2019-02-08T07:38:35.016Z,18.52
2019-02-08T07:39:55.156Z,19.45
2019-02-08T07:41:06.441Z,22.82
2019-02-08T07:42:17.844Z,24.95
2019-02-08T07:43:26.410Z,29.42
2019-02-08T07:44:34.254Z,24.18
2019-02-08T07:46:01.566Z,22.45
2019-02-08T07:47:07.051Z,22.93
2019-02-08T07:48:25.044Z,23.05
2019-02-08T07:49:31.529Z,25.43
2019-02-08T07:50:39.507Z,27.25
2019-02-08T07:52:01.531Z,27.75
2019-02-08T07:53:11.054Z,29.10
2019-02-08T07:54:19.299Z,25.50
2019-02-08T07:55:27.495Z,25.23
2019-02-08T07:56:35.641Z,25.37
2019-02-08T07:57:43.680Z,27.77
2019-02-08T07:58:49.268Z,25.70
2019-02-08T08:00:06.857Z,26.40
2019-02-08T08:01:12.341Z,28.62
2019-02-08T08:02:17.624Z,26.35
2019-02-08T08:03:25.756Z,25.80
2019-02-08T08:04:32.864Z,24.67
2019-02-08T08:05:41.731Z,24.50
2019-02-08T08:06:49.721Z,25.10
2019-02-08T08:08:01.071Z,23.20
2019-02-08T08:09:25.112Z,30.68
2019-02-08T08:10:30.913Z,32.88
2019-02-08T08:11:39.209Z,29.65
2019-02-08T08:12:48.172Z,29.70
2019-02-08T08:13:56.286Z,28.30
2019-02-08T08:15:05.126Z,30.00
2019-02-08T08:16:25.482Z,27.87
2019-02-08T08:17:47.404Z,26.65
2019-02-08T08:18:53.291Z,27.98
2019-02-08T08:20:15.167Z,22.65
2019-02-08T08:21:24.841Z,25.40
2019-02-08T08:22:35.872Z,28.53
2019-02-08T08:23:53.918Z,25.77
2019-02-08T08:25:04.029Z,25.77
2019-02-08T08:26:16.024Z,23.83
2019-02-08T08:27:30.568Z,25.45
2019-02-08T08:28:41.809Z,24.30
2019-02-08T08:29:48.978Z,26.67
2019-02-08T08:31:01.108Z,28.27
2019-02-08T08:32:11.136Z,27.20
2019-02-08T08:33:23.925Z,25.70
2019-02-08T08:34:39.398Z,27.80
2019-02-08T08:35:51.980Z,25.53
2019-02-08T08:37:07.336Z,27.30
2019-02-08T08:38:34.871Z,36.00
2019-02-08T08:39:41.525Z,28.05
2019-02-08T08:40:56.832Z,28.40
2019-02-08T08:42:23.096Z,25.13
2019-02-08T08:43:41.160Z,21.07
2019-02-08T08:45:08.607Z,21.50
2019-02-08T08:46:23.883Z,20.20
2019-02-08T08:47:48.706Z,20.13
2019-02-08T08:49:01.232Z,23.00
2019-02-08T08:50:43.017Z,24.43
2019-02-08T08:51:58.590Z,22.67
2019-02-08T08:53:16.390Z,28.23
2019-02-08T08:54:39.476Z,21.83
2019-02-08T08:56:09.118Z,21.23
2019-02-08T08:57:20.902Z,22.30
2019-02-08T08:58:44.156Z,25.60
2019-02-08T09:00:16.425Z,25.80
2019-02-08T09:01:43.501Z,22.40
2019-02-08T09:03:05.038Z,20.17
2019-02-08T09:04:31.074Z,20.53
2019-02-08T09:05:51.157Z,19.90
2019-02-08T09:07:16.570Z,23.43
2019-02-08T09:08:42.710Z,25.10
2019-02-08T09:09:55.155Z,20.00
2019-02-08T09:11:16.919Z,22.60
2019-02-08T09:12:32.569Z,20.90
2019-02-08T09:13:42.061Z,15.13
2019-02-08T09:15:20.349Z,12.67
2019-02-08T09:16:46.488Z,12.90
2019-02-08T09:18:29.545Z,19.97
2019-02-08T09:20:09.512Z,18.47
2019-02-08T09:21:21.865Z,14.23
2019-02-08T09:22:40.145Z,16.33
2019-02-08T09:23:49.291Z,11.97
2019-02-08T09:25:07.816Z,12.57
2019-02-08T09:26:32.285Z,14.53
2019-02-08T09:27:51.360Z,13.00
2019-02-08T09:29:30.101Z,10.97
2019-02-08T09:31:06.145Z,15.47
2019-02-08T09:32:33.918Z,10.00
2019-02-08T09:33:43.240Z,18.43
2019-02-08T09:35:07.942Z,12.47
2019-02-08T09:36:38.778Z,13.73
2019-02-08T09:37:50.996Z,12.90
2019-02-08T09:39:17.134Z,11.23
2019-02-08T09:40:38.859Z,10.87
2019-02-08T09:42:12.637Z,11.50
2019-02-08T09:43:30.889Z,12.57
2019-02-08T09:45:10.543Z,13.60
2019-02-08T09:46:39.575Z,13.20
2019-02-08T09:48:08.340Z,12.30
2019-02-08T09:49:46.811Z,10.47
2019-02-08T09:51:05.432Z,10.53
2019-02-08T09:52:18.029Z,9.80
2019-02-08T09:53:33.670Z,8.30
2019-02-08T09:54:49.494Z,8.60
2019-02-08T09:56:11.079Z,8.17
2019-02-08T09:57:49.116Z,7.60
2019-02-08T09:59:07.504Z,8.40
2019-02-08T10:00:19.552Z,9.23
2019-02-08T10:01:47.616Z,9.10
2019-02-08T10:03:09.482Z,8.07
2019-02-08T10:04:32.713Z,9.03
2019-02-08T10:06:09.900Z,11.23
2019-02-08T10:07:28.644Z,12.77
2019-02-08T10:08:59.288Z,13.50
2019-02-08T10:10:24.293Z,10.70
2019-02-08T10:11:36.718Z,12.67
2019-02-08T10:12:51.849Z,14.03
2019-02-08T10:14:14.736Z,15.00
2019-02-08T10:15:44.365Z,20.97
2019-02-08T10:17:11.883Z,12.00
2019-02-08T10:18:41.055Z,15.03
2019-02-08T10:20:08.451Z,14.20
2019-02-08T10:21:43.932Z,14.03
2019-02-08T10:23:08.544Z,15.27
2019-02-08T10:24:20.949Z,16.60
2019-02-08T10:25:36.329Z,14.87
2019-02-08T10:26:59.939Z,14.40
2019-02-08T10:28:21.658Z,14.63
2019-02-08T10:30:03.591Z,13.87
2019-02-08T10:31:15.992Z,14.00
2019-02-08T10:32:57.614Z,14.07
2019-02-08T10:34:23.643Z,16.10
2019-02-08T10:35:54.545Z,14.60
2019-02-08T10:37:09.748Z,15.40
2019-02-08T10:38:41.857Z,16.23
2019-02-08T10:39:54.567Z,19.70
2019-02-08T10:41:30.838Z,16.70
2019-02-08T10:42:46.773Z,14.87
2019-02-08T10:44:26.680Z,15.03
2019-02-08T10:45:38.926Z,14.10
2019-02-08T10:47:22.253Z,14.83
2019-02-08T10:48:48.148Z,14.77
2019-02-08T10:50:11.226Z,14.23
2019-02-08T10:51:51.323Z,13.63
2019-02-08T10:53:22.460Z,14.17
2019-02-08T10:55:01.525Z,16.50
2019-02-08T10:56:41.632Z,14.30
2019-02-08T10:58:21.750Z,12.07
2019-02-08T10:59:37.626Z,12.23
2019-02-08T11:01:03.950Z,11.40
2019-02-08T11:02:41.108Z,12.33
2019-02-08T11:04:13.161Z,12.10
2019-02-08T11:05:39.042Z,12.07
2019-02-08T11:07:18.871Z,12.67
2019-02-08T11:08:31.077Z,11.37
2019-02-08T11:09:43.584Z,12.33
2019-02-08T11:11:08.639Z,11.87
2019-02-08T11:12:38.297Z,12.37
2019-02-08T11:13:50.636Z,14.73
2019-02-08T11:15:00.251Z,14.43
2019-02-08T11:16:15.242Z,13.00
2019-02-08T11:17:24.738Z,14.43
2019-02-08T11:18:58.752Z,16.47
2019-02-08T11:20:02.437Z,21.47
2019-02-08T11:21:06.726Z,13.37
2019-02-08T11:22:10.464Z,11.90
2019-02-08T11:23:14.123Z,15.10
2019-02-08T11:24:19.861Z,16.77
2019-02-08T11:25:23.669Z,29.73
2019-02-08T11:26:27.516Z,41.37
2019-02-08T11:27:31.187Z,33.30
2019-02-08T11:28:36.293Z,19.07
2019-02-08T11:29:39.975Z,12.77
2019-02-08T11:30:43.724Z,11.73
2019-02-08T11:31:47.420Z,11.67
2019-02-08T11:32:51.428Z,13.50
2019-02-08T11:33:55.076Z,13.63
2019-02-08T11:34:58.803Z,12.67
2019-02-08T11:36:02.497Z,12.57
2019-02-08T11:37:06.532Z,12.97
2019-02-08T11:38:10.291Z,14.77
2019-02-08T11:39:16.319Z,12.33
2019-02-08T11:40:23.366Z,13.40
2019-02-08T11:41:27.531Z,19.60
2019-02-08T11:42:31.249Z,14.63
2019-02-08T11:43:35.030Z,13.27
2019-02-08T11:44:39.166Z,11.23
2019-02-08T11:45:42.880Z,11.97
2019-02-08T11:46:46.593Z,12.63
2019-02-08T11:47:51.293Z,12.50
2019-02-08T11:48:55.045Z,11.73
2019-02-08T11:49:58.678Z,10.67
2019-02-08T11:51:02.396Z,11.97
2019-02-08T11:52:06.624Z,10.57
2019-02-08T11:53:10.252Z,11.43
2019-02-08T11:54:13.929Z,11.90
2019-02-08T11:55:17.646Z,10.80
2019-02-08T11:56:21.361Z,11.57
2019-02-08T11:57:25.015Z,11.70
2019-02-08T11:58:28.646Z,12.17
2019-02-08T11:59:32.341Z,12.47
2019-02-08T12:00:37.923Z,12.80
2019-02-08T12:01:42.544Z,11.20
2019-02-08T12:02:46.230Z,11.17
2019-02-08T12:03:49.945Z,11.63
2019-02-08T12:04:53.636Z,11.10
2019-02-08T12:05:57.284Z,11.10
2019-02-08T12:07:01.007Z,13.17
2019-02-08T12:08:05.742Z,13.60
2019-02-08T12:09:11.831Z,12.60
2019-02-08T12:10:15.811Z,12.40
2019-02-08T12:11:19.470Z,12.10
2019-02-08T12:12:23.103Z,11.20
2019-02-08T12:13:26.769Z,12.50
2019-02-08T12:14:30.639Z,14.70
2019-02-08T12:15:34.523Z,12.70
2019-02-08T12:16:38.220Z,12.47
2019-02-08T12:17:41.922Z,11.77
2019-02-08T12:18:45.552Z,11.67
2019-02-08T12:19:49.221Z,10.97
2019-02-08T12:20:52.907Z,12.53
2019-02-08T12:21:56.554Z,12.23
2019-02-08T12:23:04.068Z,12.97
2019-02-08T12:24:08.299Z,17.13
2019-02-08T12:25:14.941Z,15.90
2019-02-08T12:26:18.613Z,14.37
2019-02-08T12:27:22.248Z,16.07
2019-02-08T12:28:25.965Z,13.20
2019-02-08T12:29:29.694Z,14.73
2019-02-08T12:30:42.420Z,14.47
2019-02-08T12:31:46.178Z,12.93
2019-02-08T12:32:49.913Z,16.23
2019-02-08T12:33:53.618Z,11.90
2019-02-08T12:34:57.274Z,13.20
2019-02-08T12:36:00.927Z,12.70
2019-02-08T12:37:04.626Z,12.17
2019-02-08T12:38:08.359Z,11.07
2019-02-08T12:39:12.068Z,11.50
2019-02-08T12:40:16.205Z,12.07
2019-02-08T12:41:19.924Z,12.97
2019-02-08T12:42:23.626Z,14.27
2019-02-08T12:43:27.333Z,12.20
2019-02-08T12:44:31.235Z,12.97
2019-02-08T12:45:35.188Z,12.30
2019-02-08T12:46:38.804Z,12.40
2019-02-08T12:47:42.808Z,12.30
2019-02-08T12:48:46.496Z,13.67
2019-02-08T12:49:50.144Z,12.00
2019-02-08T12:50:53.794Z,12.67
2019-02-08T12:51:57.439Z,16.57
2019-02-08T12:53:04.718Z,15.67
2019-02-08T12:54:08.494Z,18.07
2019-02-08T12:55:17.438Z,17.03
2019-02-08T12:56:21.386Z,15.10
2019-02-08T12:57:25.096Z,14.77
2019-02-08T12:58:29.210Z,16.70
2019-02-08T12:59:32.874Z,14.47
2019-02-08T13:00:36.522Z,12.47
2019-02-08T13:01:40.107Z,13.50
2019-02-08T13:02:43.743Z,12.70
2019-02-08T13:03:48.110Z,13.83
2019-02-08T13:04:51.789Z,11.80
2019-02-08T13:05:55.600Z,11.57
2019-02-08T13:06:59.223Z,10.07
2019-02-08T13:08:02.949Z,11.33
2019-02-08T13:09:09.746Z,11.60
2019-02-08T13:10:19.307Z,11.00
2019-02-08T13:11:22.955Z,11.73
2019-02-08T13:12:26.593Z,12.17
2019-02-08T13:13:30.651Z,13.00
2019-02-08T13:14:34.293Z,14.13
2019-02-08T13:15:38.021Z,14.27
2019-02-08T13:16:41.741Z,13.33
2019-02-08T13:17:45.386Z,15.20
2019-02-08T13:18:51.975Z,13.03
2019-02-08T13:19:55.959Z,15.00
2019-02-08T13:20:59.731Z,14.20
2019-02-08T13:22:03.481Z,12.20
2019-02-08T13:23:07.167Z,12.13
2019-02-08T13:24:10.998Z,12.50
2019-02-08T13:25:16.832Z,11.10
2019-02-08T13:26:20.606Z,11.70
2019-02-08T13:27:24.317Z,12.43
2019-02-08T13:28:27.955Z,12.30
2019-02-08T13:29:31.597Z,13.27
2019-02-08T13:30:36.337Z,13.10
2019-02-08T13:31:40.026Z,13.00
2019-02-08T13:32:43.828Z,13.00
2019-02-08T13:33:47.470Z,13.57
2019-02-08T13:34:51.182Z,14.10
2019-02-08T13:35:55.166Z,15.27
2019-02-08T13:36:58.841Z,15.03
2019-02-08T13:38:02.559Z,14.47
2019-02-08T13:39:07.794Z,14.63
2019-02-08T13:40:25.623Z,13.90
2019-02-08T13:41:29.453Z,11.70
2019-02-08T13:42:33.215Z,12.30
2019-02-08T13:43:36.855Z,12.33
2019-02-08T13:44:40.629Z,14.03
2019-02-08T13:45:44.647Z,15.40
2019-02-08T13:46:48.378Z,13.63
2019-02-08T13:47:52.373Z,12.00
2019-02-08T13:48:56.016Z,12.80
2019-02-08T13:49:59.656Z,12.67
2019-02-08T13:51:03.587Z,11.20
2019-02-08T13:52:07.279Z,11.03
2019-02-08T13:53:10.990Z,13.40
2019-02-08T13:54:14.670Z,15.17
2019-02-08T13:55:23.923Z,14.30
2019-02-08T13:56:27.714Z,13.17
2019-02-08T13:57:31.460Z,12.57
2019-02-08T13:58:35.523Z,13.27
2019-02-08T13:59:39.233Z,15.33
2019-02-08T14:00:43.062Z,19.87
2019-02-08T14:01:47.191Z,18.23
2019-02-08T14:02:50.885Z,20.20
2019-02-08T14:03:54.544Z,15.57
2019-02-08T14:04:58.193Z,15.37
2019-02-08T14:06:01.824Z,12.93
2019-02-08T14:07:05.480Z,13.00
2019-02-08T14:08:09.354Z,10.73
2019-02-08T14:09:13.514Z,12.03
2019-02-08T14:10:21.589Z,14.53
2019-02-08T14:11:25.244Z,16.07
2019-02-08T14:12:28.899Z,16.43
2019-02-08T14:13:40.187Z,17.90
2019-02-08T14:14:37.930Z,13.40
2019-02-08T14:15:41.569Z,12.73
2019-02-08T14:16:45.206Z,12.03
2019-02-08T14:17:48.853Z,12.20
2019-02-08T14:18:52.518Z,11.83
2019-02-08T14:19:56.221Z,13.37
2019-02-08T14:20:59.878Z,16.27
2019-02-08T14:22:03.519Z,14.73
2019-02-08T14:23:07.234Z,15.57
2019-02-08T14:24:10.905Z,18.67
2019-02-08T14:25:16.545Z,18.60
2019-02-08T14:26:20.188Z,18.27
2019-02-08T14:27:23.826Z,17.83
2019-02-08T14:28:27.471Z,22.43
2019-02-08T14:29:31.157Z,17.10
2019-02-08T14:30:40.426Z,19.73
2019-02-08T14:31:44.949Z,19.70
2019-02-08T14:32:48.797Z,17.03
2019-02-08T14:33:52.448Z,17.93
2019-02-08T14:34:56.130Z,16.63
2019-02-08T14:36:01.212Z,16.90